Time;durP1;ratioP1;P1;durP2;ratioP2;P2;SDS_P1;SDS_P2;PMS_P1;PMS_P2;Temp;Humidity;BMP_temperature;BMP_pressure;BME280_temperature;BME280_humidity;BME280_pressure;Samples;Min_cycle;Max_cycle;Signal;HPM_P1;HPM_P2
2022/05/19 00:02:25;;;;;;;3.85;3.25;;;;;;;;;;5095203;28;20023;-75
2022/05/19 00:04:50;;;;;;;4.95;3.20;;;;;;;;;;5095069;28;20363;-75
2022/05/19 00:07:16;;;;;;;4.05;3.25;;;;;;;;;;5095006;28;20065;-76
2022/05/19 00:09:41;;;;;;;4.07;3.65;;;;;;;;;;5095090;28;20024;-76
2022/05/19 00:12:08;;;;;;;5.07;3.53;;;;;;;;;;5095000;28;20020;-76
2022/05/19 00:14:34;;;;;;;5.50;3.95;;;;;;;;;;5076757;28;20070;-76
2022/05/19 00:16:59;;;;;;;5.57;3.50;;;;;;;;;;5094697;28;20420;-76
2022/05/19 00:19:25;;;;;;;3.28;2.75;;;;;;;;;;5076534;28;20779;-76
2022/05/19 00:21:51;;;;;;;4.15;2.90;;;;;;;;;;5095082;28;20012;-75
2022/05/19 00:24:18;;;;;;;4.07;2.75;;;;;;;;;;5094746;28;20028;-75
2022/05/19 00:26:43;;;;;;;3.92;3.05;;;;;;;;;;5094679;28;20204;-76
2022/05/19 00:29:09;;;;;;;3.50;2.90;;;;;;;;;;5094680;28;20036;-74
2022/05/19 00:31:35;;;;;;;3.65;2.80;;;;;;;;;;5094820;28;20016;-74
2022/05/19 00:34:01;;;;;;;7.13;3.08;;;;;;;;;;5094674;28;20020;-74
2022/05/19 00:36:27;;;;;;;3.85;2.95;;;;;;;;;;5094480;28;20023;-75
2022/05/19 00:38:52;;;;;;;3.15;2.65;;;;;;;;;;5093670;28;20032;-75
2022/05/19 00:41:18;;;;;;;2.97;2.50;;;;;;;;;;5094381;28;20048;-76
2022/05/19 00:43:45;;;;;;;4.88;2.88;;;;;;;;;;5094373;28;20028;-75
2022/05/19 00:46:13;;;;;;;4.20;2.78;;;;;;;;;;5094324;28;20016;-76
2022/05/19 00:48:45;;;;;;;4.47;3.03;;;;;;;;;;5094222;28;20032;-74
2022/05/19 00:51:12;;;;;;;3.00;2.78;;;;;;;;;;5094224;28;20028;-74
2022/05/19 00:53:40;;;;;;;4.55;2.85;;;;;;;;;;5094155;28;20036;-76
2022/05/19 00:56:10;;;;;;;3.20;2.72;;;;;;;;;;5094185;28;20036;-77
2022/05/19 00:58:39;;;;;;;3.45;2.88;;;;;;;;;;5094162;28;20051;-77
2022/05/19 01:01:06;;;;;;;3.92;2.40;;;;;;;;;;5094092;28;20032;-77
2022/05/19 01:03:36;;;;;;;4.53;2.83;;;;;;;;;;5094059;28;20027;-77
2022/05/19 01:06:07;;;;;;;2.95;2.75;;;;;;;;;;5094016;28;20028;-74
2022/05/19 01:08:38;;;;;;;5.50;3.10;;;;;;;;;;5093975;28;20028;-73
2022/05/19 01:11:05;;;;;;;3.65;2.53;;;;;;;;;;5093894;28;20398;-74
2022/05/19 01:13:31;;;;;;;2.97;2.53;;;;;;;;;;5093925;28;20077;-73
2022/05/19 01:15:57;;;;;;;3.45;2.75;;;;;;;;;;5093868;28;20071;-74
2022/05/19 01:18:25;;;;;;;2.75;2.55;;;;;;;;;;5093652;28;20044;-73
2022/05/19 01:20:51;;;;;;;4.75;2.78;;;;;;;;;;5093781;28;20031;-74
2022/05/19 01:23:19;;;;;;;3.80;2.47;;;;;;;;;;5093980;28;20385;-74
2022/05/19 01:26:03;;;;;;;2.47;2.28;;;;;;;;;;5075691;28;20431;-74
2022/05/19 01:28:29;;;;;;;4.57;2.42;;;;;;;;;;5093851;28;20111;-74
2022/05/19 01:30:54;;;;;;;2.65;2.45;;;;;;;;;;5093707;28;20442;-74
2022/05/19 01:33:20;;;;;;;2.63;2.42;;;;;;;;;;5093642;28;20149;-74
2022/05/19 01:35:46;;;;;;;2.80;2.10;;;;;;;;;;5093770;28;20420;-74
2022/05/19 01:38:14;;;;;;;3.67;2.13;;;;;;;;;;5093527;28;20028;-74
2022/05/19 01:41:01;;;;;;;2.42;2.15;;;;;;;;;;5075518;28;20099;-74
2022/05/19 01:43:45;;;;;;;2.63;1.90;;;;;;;;;;5093570;28;20036;-74
2022/05/19 01:46:29;;;;;;;3.05;2.30;;;;;;;;;;5075397;28;20034;-75
2022/05/19 01:49:00;;;;;;;2.90;2.22;;;;;;;;;;5093571;28;20109;-75
2022/05/19 01:51:25;;;;;;;2.35;2.15;;;;;;;;;;5097262;28;20032;-76
2022/05/19 01:54:03;;;;;;;2.37;2.23;;;;;;;;;;5097616;28;20084;-76
2022/05/19 01:56:31;;;;;;;2.58;2.38;;;;;;;;;;5097572;28;20368;-75
2022/05/19 01:58:56;;;;;;;2.58;2.38;;;;;;;;;;5079374;28;20020;-74
2022/05/19 02:01:25;;;;;;;4.10;2.92;;;;;;;;;;5097493;28;20047;-75
2022/05/19 02:04:09;;;;;;;2.03;1.88;;;;;;;;;;5097438;28;20015;-74
2022/05/19 02:06:35;;;;;;;2.05;1.90;;;;;;;;;;5097372;28;20382;-75
2022/05/19 02:09:02;;;;;;;3.13;2.20;;;;;;;;;;5097296;28;20035;-75
2022/05/19 02:11:49;;;;;;;3.10;2.08;;;;;;;;;;5097251;28;20112;-75
2022/05/19 02:14:16;;;;;;;2.00;1.80;;;;;;;;;;5097255;28;20032;-75
2022/05/19 02:16:42;;;;;;;2.20;2.10;;;;;;;;;;5096943;28;20553;-75
2022/05/19 02:19:10;;;;;;;2.58;2.38;;;;;;;;;;5078817;28;20032;-74
2022/05/19 02:21:36;;;;;;;2.67;2.35;;;;;;;;;;5097115;28;20016;-75
2022/05/19 02:24:01;;;;;;;2.38;2.13;;;;;;;;;;5079295;28;20089;-75
2022/05/19 02:26:34;;;;;;;2.40;2.20;;;;;;;;;;5096976;28;20458;-75
2022/05/19 02:29:06;;;;;;;2.15;1.88;;;;;;;;;;5096942;28;20114;-75
2022/05/19 02:31:32;;;;;;;1.80;1.67;;;;;;;;;;5078723;28;20024;-77
2022/05/19 02:33:57;;;;;;;2.75;1.88;;;;;;;;;;5096848;28;20023;-77
2022/05/19 02:36:23;;;;;;;2.38;1.77;;;;;;;;;;5096836;28;20467;-78
2022/05/19 02:38:48;;;;;;;2.10;1.60;;;;;;;;;;5096671;28;20055;-77
2022/05/19 02:41:13;;;;;;;2.15;2.05;;;;;;;;;;5078702;28;20294;-78
2022/05/19 02:43:38;;;;;;;1.83;1.73;;;;;;;;;;5096690;28;20416;-75
2022/05/19 02:46:04;;;;;;;2.17;1.98;;;;;;;;;;5096637;28;20024;-75
2022/05/19 02:48:31;;;;;;;2.20;2.00;;;;;;;;;;5096546;28;20024;-75
2022/05/19 02:50:56;;;;;;;3.45;1.98;;;;;;;;;;5096598;28;20462;-74
2022/05/19 02:53:21;;;;;;;2.47;1.77;;;;;;;;;;5096492;28;20024;-74
2022/05/19 02:55:47;;;;;;;2.20;1.80;;;;;;;;;;5096515;28;20067;-74
2022/05/19 02:58:14;;;;;;;2.58;2.38;;;;;;;;;;5096326;28;20020;-74
2022/05/19 03:00:44;;;;;;;2.20;2.00;;;;;;;;;;5096437;28;20090;-74
2022/05/19 03:03:10;;;;;;;6.43;2.30;;;;;;;;;;5095588;28;20028;-73
2022/05/19 03:05:35;;;;;;;2.78;2.10;;;;;;;;;;5078085;28;20492;-74
2022/05/19 03:08:00;;;;;;;2.00;1.80;;;;;;;;;;5096238;28;20498;-74
2022/05/19 03:10:26;;;;;;;1.88;1.75;;;;;;;;;;5095948;28;20252;-74
2022/05/19 03:12:53;;;;;;;2.45;1.95;;;;;;;;;;5096005;28;20069;-73
2022/05/19 03:15:19;;;;;;;2.88;1.90;;;;;;;;;;5095998;28;20061;-73
2022/05/19 03:17:44;;;;;;;1.85;1.75;;;;;;;;;;5095723;28;20036;-74
2022/05/19 03:20:10;;;;;;;2.35;2.00;;;;;;;;;;5095995;28;20377;-74
2022/05/19 03:22:35;;;;;;;2.40;2.20;;;;;;;;;;5095939;28;20043;-74
2022/05/19 03:25:02;;;;;;;4.00;2.17;;;;;;;;;;5095825;28;20381;-74
2022/05/19 03:27:27;;;;;;;2.13;1.80;;;;;;;;;;5077822;28;20024;-74
2022/05/19 03:29:53;;;;;;;3.20;1.88;;;;;;;;;;5095890;28;20032;-74
2022/05/19 03:32:19;;;;;;;2.25;1.63;;;;;;;;;;5095751;28;20020;-75
2022/05/19 03:34:44;;;;;;;1.77;1.65;;;;;;;;;;5095688;28;20056;-74
2022/05/19 03:37:11;;;;;;;3.53;2.05;;;;;;;;;;5095649;28;20012;-74
2022/05/19 03:39:37;;;;;;;1.77;1.67;;;;;;;;;;5095534;28;20039;-74
2022/05/19 03:42:03;;;;;;;2.92;1.92;;;;;;;;;;5095610;28;20020;-74
2022/05/19 03:44:28;;;;;;;2.60;1.73;;;;;;;;;;5095521;28;20024;-74
2022/05/19 03:46:53;;;;;;;1.38;1.27;;;;;;;;;;5095522;28;20012;-74
2022/05/19 03:49:20;;;;;;;3.92;1.83;;;;;;;;;;5095222;28;20485;-78
2022/05/19 03:51:45;;;;;;;3.05;1.80;;;;;;;;;;5095926;28;20028;-74
2022/05/19 03:54:12;;;;;;;2.08;1.55;;;;;;;;;;5095595;28;20043;-74
2022/05/19 03:56:37;;;;;;;2.38;1.38;;;;;;;;;;5096127;28;20028;-74
2022/05/19 03:59:04;;;;;;;2.45;2.08;;;;;;;;;;5095221;28;20036;-74
2022/05/19 04:01:30;;;;;;;4.47;2.08;;;;;;;;;;5095936;28;20024;-75
2022/05/19 04:03:55;;;;;;;2.50;1.60;;;;;;;;;;5095937;28;20426;-75
2022/05/19 04:06:23;;;;;;;4.20;1.98;;;;;;;;;;5095676;28;20016;-74
2022/05/19 04:08:49;;;;;;;2.65;1.67;;;;;;;;;;5076976;28;20114;-74
2022/05/19 04:11:15;;;;;;;1.67;1.38;;;;;;;;;;5077524;28;20426;-75
2022/05/19 04:13:42;;;;;;;1.83;1.73;;;;;;;;;;5095697;28;20081;-74
2022/05/19 04:16:08;;;;;;;2.63;1.50;;;;;;;;;;5094556;28;20089;-74
2022/05/19 04:18:33;;;;;;;3.10;1.80;;;;;;;;;;5094790;28;20023;-74
2022/05/19 04:20:59;;;;;;;1.60;1.50;;;;;;;;;;5094868;28;20493;-76
2022/05/19 04:23:25;;;;;;;3.20;1.40;;;;;;;;;;5076750;28;20035;-75
2022/05/19 04:25:51;;;;;;;1.67;1.45;;;;;;;;;;5095241;28;20028;-75
2022/05/19 04:28:18;;;;;;;1.88;1.67;;;;;;;;;;5077058;28;20027;-75
2022/05/19 04:30:45;;;;;;;2.88;1.65;;;;;;;;;;5076578;28;20020;-75
2022/05/19 04:33:12;;;;;;;2.10;1.50;;;;;;;;;;5094150;28;20076;-76
2022/05/19 04:35:39;;;;;;;3.22;1.42;;;;;;;;;;5092688;28;20020;-75
2022/05/19 04:38:12;;;;;;;3.72;1.60;;;;;;;;;;5091674;28;20532;-74
2022/05/19 04:40:39;;;;;;;1.70;1.35;;;;;;;;;;5091680;28;20028;-74
2022/05/19 04:43:05;;;;;;;1.95;1.30;;;;;;;;;;5091606;28;20019;-74
2022/05/19 04:45:30;;;;;;;5.07;1.70;;;;;;;;;;5073016;28;20036;-74
2022/05/19 04:47:56;;;;;;;1.75;1.60;;;;;;;;;;5093298;28;20035;-74
2022/05/19 04:50:21;;;;;;;3.03;1.48;;;;;;;;;;5093164;28;20036;-74
2022/05/19 04:52:46;;;;;;;3.35;1.08;;;;;;;;;;5093197;28;20034;-72
2022/05/19 04:55:12;;;;;;;2.38;1.75;;;;;;;;;;5093130;28;20044;-76
2022/05/19 04:57:38;;;;;;;2.55;1.40;;;;;;;;;;5093008;28;20034;-74
2022/05/19 05:00:05;;;;;;;2.95;1.50;;;;;;;;;;5093059;28;20031;-74
2022/05/19 05:02:30;;;;;;;5.15;1.38;;;;;;;;;;5092959;28;20024;-74
2022/05/19 05:04:58;;;;;;;1.77;1.33;;;;;;;;;;5074753;28;20432;-74
2022/05/19 05:07:23;;;;;;;3.30;1.30;;;;;;;;;;5092989;28;20016;-74
2022/05/19 05:09:48;;;;;;;2.65;1.40;;;;;;;;;;5092824;28;20031;-74
2022/05/19 05:12:13;;;;;;;3.27;1.30;;;;;;;;;;5092915;28;20145;-74
2022/05/19 05:14:39;;;;;;;2.85;1.30;;;;;;;;;;5092858;28;20414;-74
2022/05/19 05:17:04;;;;;;;1.77;1.00;;;;;;;;;;5092608;28;20048;-74
2022/05/19 05:19:29;;;;;;;1.58;1.20;;;;;;;;;;5092698;28;20290;-74
2022/05/19 05:21:56;;;;;;;2.58;1.35;;;;;;;;;;5092739;28;20038;-74
2022/05/19 05:24:21;;;;;;;2.35;1.38;;;;;;;;;;5092553;28;20028;-74
2022/05/19 05:26:46;;;;;;;1.85;1.20;;;;;;;;;;5092542;28;20108;-74
2022/05/19 05:29:12;;;;;;;1.45;1.30;;;;;;;;;;5074606;28;20056;-74
2022/05/19 05:31:38;;;;;;;1.83;1.40;;;;;;;;;;5092636;28;20363;-74
2022/05/19 05:34:03;;;;;;;2.75;1.73;;;;;;;;;;5092588;28;20032;-74
2022/05/19 05:36:28;;;;;;;1.88;1.77;;;;;;;;;;5092891;28;20438;-74
2022/05/19 05:38:54;;;;;;;3.25;1.92;;;;;;;;;;5092508;28;20024;-74
2022/05/19 05:41:19;;;;;;;2.30;2.00;;;;;;;;;;5092574;28;20008;-74
2022/05/19 05:43:44;;;;;;;2.60;1.95;;;;;;;;;;5092447;28;20028;-74
2022/05/19 05:46:11;;;;;;;2.22;1.63;;;;;;;;;;5092471;28;20016;-74
2022/05/19 05:48:37;;;;;;;1.90;1.80;;;;;;;;;;5092581;28;20032;-74
2022/05/19 05:51:06;;;;;;;2.42;2.22;;;;;;;;;;5092405;28;20027;-74
2022/05/19 05:53:32;;;;;;;7.80;6.43;;;;;;;;;;5092377;28;20529;-74
2022/05/19 05:55:57;;;;;;;3.10;2.83;;;;;;;;;;5092394;28;20112;-74
2022/05/19 05:58:25;;;;;;;3.90;1.38;;;;;;;;;;5092412;28;20443;-74
2022/05/19 06:00:51;;;;;;;3.35;1.42;;;;;;;;;;5092374;28;20377;-74
2022/05/19 06:03:17;;;;;;;4.68;1.98;;;;;;;;;;5092263;28;20039;-71
2022/05/19 06:05:42;;;;;;;4.82;2.30;;;;;;;;;;5092019;28;20107;-67
2022/05/19 06:08:08;;;;;;;3.30;1.58;;;;;;;;;;5093730;28;20036;-69
2022/05/19 06:10:34;;;;;;;4.32;1.90;;;;;;;;;;5093456;28;20035;-69
2022/05/19 06:12:59;;;;;;;2.30;1.65;;;;;;;;;;5093790;28;20137;-69
2022/05/19 06:15:24;;;;;;;2.57;1.83;;;;;;;;;;5075593;28;20031;-69
2022/05/19 06:17:50;;;;;;;3.40;1.45;;;;;;;;;;5093420;28;20306;-69
2022/05/19 06:20:17;;;;;;;5.40;1.95;;;;;;;;;;5093177;28;20031;-69
2022/05/19 06:22:43;;;;;;;2.63;1.85;;;;;;;;;;5093964;28;20115;-69
2022/05/19 06:25:09;;;;;;;2.95;1.90;;;;;;;;;;5093670;28;20107;-69
2022/05/19 06:27:34;;;;;;;2.92;1.88;;;;;;;;;;5093660;28;20508;-69
2022/05/19 06:30:00;;;;;;;3.15;1.90;;;;;;;;;;5093713;28;20024;-69
2022/05/19 06:32:25;;;;;;;2.50;1.65;;;;;;;;;;5093194;28;20027;-69
2022/05/19 06:34:51;;;;;;;3.03;1.95;;;;;;;;;;5093110;28;20103;-69
2022/05/19 06:37:16;;;;;;;2.90;1.55;;;;;;;;;;5094278;28;20035;-69
2022/05/19 06:39:41;;;;;;;3.93;1.90;;;;;;;;;;5096744;28;20024;-69
2022/05/19 06:42:14;;;;;;;5.45;2.45;;;;;;;;;;5096822;28;20278;-69
2022/05/19 06:44:40;;;;;;;4.28;1.90;;;;;;;;;;5096678;28;20485;-69
2022/05/19 06:47:13;;;;;;;2.40;1.80;;;;;;;;;;5096624;28;20020;-69
2022/05/19 06:49:39;;;;;;;3.47;1.73;;;;;;;;;;5096567;28;20120;-69
2022/05/19 06:52:06;;;;;;;6.15;2.50;;;;;;;;;;5096655;28;20022;-69
2022/05/19 06:54:31;;;;;;;4.20;2.00;;;;;;;;;;5096668;28;20039;-69
2022/05/19 06:56:57;;;;;;;2.75;1.88;;;;;;;;;;5096464;28;20024;-69
2022/05/19 06:59:23;;;;;;;4.53;1.98;;;;;;;;;;5096323;28;20036;-69
2022/05/19 07:01:48;;;;;;;3.63;1.70;;;;;;;;;;5096354;28;20020;-69
2022/05/19 07:04:14;;;;;;;3.95;1.83;;;;;;;;;;5096356;28;20028;-69
2022/05/19 07:06:40;;;;;;;2.03;1.50;;;;;;;;;;5096277;28;20022;-69
2022/05/19 07:09:05;;;;;;;1.40;1.23;;;;;;;;;;5096202;28;20114;-69
2022/05/19 07:11:30;;;;;;;1.80;1.25;;;;;;;;;;5096181;28;20046;-69
2022/05/19 07:14:01;;;;;;;1.45;1.27;;;;;;;;;;5096123;28;20032;-69
2022/05/19 07:16:28;;;;;;;3.40;1.10;;;;;;;;;;5096004;28;20035;-69
2022/05/19 07:20:43;;;;;;;2.25;1.25;;;;;;;;;;5096101;28;20024;-69
2022/05/19 07:21:42;;;;;;;1.50;1.20;;;;;;;;;;5096080;28;20032;-69
2022/05/19 07:24:09;;;;;;;1.90;1.10;;;;;;;;;;5096029;28;20052;-69
2022/05/19 07:26:34;;;;;;;4.32;1.40;;;;;;;;;;5095899;28;20027;-69
2022/05/19 07:28:59;;;;;;;0.73;0.50;;;;;;;;;;5095863;28;20020;-69
2022/05/19 07:31:25;;;;;;;1.95;1.15;;;;;;;;;;5095819;28;20032;-69
2022/05/19 07:33:50;;;;;;;1.50;1.30;;;;;;;;;;5095748;28;20020;-70
2022/05/19 07:36:15;;;;;;;1.45;1.10;;;;;;;;;;5095693;28;20284;-69
2022/05/19 07:38:40;;;;;;;6.70;1.20;;;;;;;;;;5095583;28;20489;-69
2022/05/19 07:41:06;;;;;;;1.05;0.60;;;;;;;;;;5095616;28;20276;-69
2022/05/19 07:43:37;;;;;;;3.27;1.50;;;;;;;;;;5095571;28;20038;-69
2022/05/19 07:46:03;;;;;;;1.90;1.10;;;;;;;;;;5095494;28;20282;-69
2022/05/19 07:48:28;;;;;;;1.55;0.90;;;;;;;;;;5077005;28;20115;-69
2022/05/19 07:50:54;;;;;;;2.15;1.08;;;;;;;;;;5095342;28;20034;-69
2022/05/19 07:53:19;;;;;;;0.80;0.57;;;;;;;;;;5095338;28;20027;-69
2022/05/19 07:55:44;;;;;;;0.85;0.85;;;;;;;;;;5095531;28;20067;-69
2022/05/19 07:58:10;;;;;;;0.60;0.60;;;;;;;;;;5095153;28;20020;-69
2022/05/19 08:00:35;;;;;;;3.53;1.35;;;;;;;;;;5095165;28;20034;-69
2022/05/19 08:03:00;;;;;;;2.92;1.40;;;;;;;;;;5095272;28;20020;-69
2022/05/19 08:05:26;;;;;;;1.90;0.98;;;;;;;;;;5095127;28;20451;-69
2022/05/19 08:07:51;;;;;;;1.55;1.38;;;;;;;;;;5095073;28;20073;-69
2022/05/19 08:10:25;;;;;;;1.20;1.10;;;;;;;;;;5095034;28;20040;-69
2022/05/19 08:15:41;;;;;;;4.60;1.23;;;;;;;;;;5095030;28;20036;-69
2022/05/19 08:18:06;;;;;;;5.50;1.27;;;;;;;;;;5094653;28;20085;-69
2022/05/19 08:20:32;;;;;;;3.30;1.50;;;;;;;;;;5094881;28;20036;-69
2022/05/19 08:22:57;;;;;;;1.90;1.45;;;;;;;;;;5094774;28;20016;-69
2022/05/19 08:25:27;;;;;;;1.73;1.50;;;;;;;;;;5094696;28;20031;-69
2022/05/19 08:27:53;;;;;;;2.22;1.45;;;;;;;;;;5094659;28;20036;-69
2022/05/19 08:30:19;;;;;;;2.53;1.50;;;;;;;;;;5076447;28;20401;-69
2022/05/19 08:32:44;;;;;;;2.50;1.50;;;;;;;;;;5094548;28;20043;-69
2022/05/19 08:35:09;;;;;;;1.47;1.37;;;;;;;;;;5094627;28;20031;-69
2022/05/19 08:37:35;;;;;;;0.77;0.77;;;;;;;;;;5094052;28;20270;-69
2022/05/19 08:40:00;;;;;;;2.15;1.40;;;;;;;;;;5094098;28;20422;-69
2022/05/19 08:42:27;;;;;;;3.03;1.25;;;;;;;;;;5094544;28;20032;-69
2022/05/19 08:44:54;;;;;;;1.58;1.48;;;;;;;;;;5094134;28;20016;-69
2022/05/19 08:47:22;;;;;;;3.20;1.45;;;;;;;;;;5094123;28;20430;-69
2022/05/19 08:49:51;;;;;;;2.38;1.73;;;;;;;;;;5094310;28;20066;-69
2022/05/19 08:52:17;;;;;;;5.38;1.77;;;;;;;;;;5094267;28;20043;-69
2022/05/19 08:54:45;;;;;;;0.50;0.50;;;;;;;;;;5094274;28;20385;-69
2022/05/19 08:57:18;;;;;;;1.77;1.35;;;;;;;;;;5094147;28;20089;-69
2022/05/19 08:59:56;;;;;;;1.65;1.20;;;;;;;;;;5093593;28;20028;-69
2022/05/19 09:02:32;;;;;;;3.20;1.55;;;;;;;;;;5094292;28;20028;-69
2022/05/19 09:04:57;;;;;;;1.50;1.20;;;;;;;;;;5094214;28;20035;-69
2022/05/19 09:07:57;;;;;;;2.73;1.87;;;;;;;;;;5085010;28;20078;-69
2022/05/19 09:10:29;;;;;;;0.82;0.82;;;;;;;;;;5073465;28;20344;-69
2022/05/19 09:13:03;;;;;;;5.18;1.58;;;;;;;;;;5073680;28;20050;-70
2022/05/19 09:15:29;;;;;;;3.40;1.77;;;;;;;;;;5073781;28;20021;-70
2022/05/19 09:17:54;;;;;;;3.38;2.00;;;;;;;;;;5091237;28;20375;-70
2022/05/19 09:20:25;;;;;;;1.65;1.25;;;;;;;;;;5093777;28;20044;-69
2022/05/19 09:22:50;;;;;;;19.40;2.25;;;;;;;;;;5093536;28;20025;-70
2022/05/19 09:25:18;;;;;;;6.32;2.00;;;;;;;;;;5092682;28;20023;-69
2022/05/19 09:27:47;;;;;;;3.88;1.52;;;;;;;;;;5092687;28;20023;-69
2022/05/19 09:30:15;;;;;;;1.90;1.25;;;;;;;;;;5092639;28;20489;-69
2022/05/19 09:32:45;;;;;;;4.07;1.90;;;;;;;;;;5092418;28;20039;-69
2022/05/19 09:35:10;;;;;;;;;;;;;;;;;;5093041;28;20032;-70
2022/05/19 09:37:38;;;;;;;2.53;1.27;;;;;;;;;;5092486;28;19930;-69
2022/05/19 09:40:12;;;;;;;3.63;1.60;;;;;;;;;;5092432;28;20493;-77
2022/05/19 09:42:55;;;;;;;7.35;1.55;;;;;;;;;;5074588;28;20028;-81
2022/05/19 09:45:24;;;;;;;2.90;1.65;;;;;;;;;;5092511;28;20028;-80
2022/05/19 09:47:52;;;;;;;1.40;1.30;;;;;;;;;;5092565;28;20047;-80
2022/05/19 09:50:21;;;;;;;0.65;0.57;;;;;;;;;;5092548;28;20036;-69
2022/05/19 09:52:46;;;;;;;3.80;1.88;;;;;;;;;;5092371;28;20074;-72
2022/05/19 09:55:13;;;;;;;4.47;1.85;;;;;;;;;;5092376;28;20438;-71
2022/05/19 09:57:43;;;;;;;1.70;1.58;;;;;;;;;;5092248;28;20058;-71
2022/05/19 10:00:18;;;;;;;2.35;1.70;;;;;;;;;;5092373;28;20359;-71
2022/05/19 10:02:46;;;;;;;3.85;1.88;;;;;;;;;;5092335;28;20093;-71
2022/05/19 10:05:40;;;;;;;4.85;2.10;;;;;;;;;;5092301;28;20062;-71
2022/05/19 10:08:17;;;;;;;1.55;1.45;;;;;;;;;;5002544;28;20074;-71
2022/05/19 10:11:05;;;;;;;1.10;0.73;;;;;;;;;;5092581;28;20020;-71
2022/05/19 10:13:38;;;;;;;4.55;1.40;;;;;;;;;;5082566;28;20036;-71
2022/05/19 10:16:10;;;;;;;1.67;1.40;;;;;;;;;;5095971;28;20044;-71
2022/05/19 10:18:38;;;;;;;1.90;1.65;;;;;;;;;;5096059;28;20024;-72
2022/05/19 10:21:03;;;;;;;3.78;1.38;;;;;;;;;;5096112;28;20099;-72
2022/05/19 10:23:49;;;;;;;1.88;1.30;;;;;;;;;;5095944;28;20059;-72
2022/05/19 10:26:23;;;;;;;1.95;1.23;;;;;;;;;;5095141;28;20053;-71
2022/05/19 10:32:06;;;;;;;3.60;1.20;;;;;;;;;;5077579;28;20585;-71
2022/05/19 10:35:07;;;;;;;2.92;1.20;;;;;;;;;;5077864;28;20404;-74
2022/05/19 10:37:58;;;;;;;3.03;1.30;;;;;;;;;;4993880;28;20264;-74
2022/05/19 10:40:42;;;;;;;0.98;0.75;;;;;;;;;;5055847;28;20044;-75
2022/05/19 10:43:08;;;;;;;3.85;1.40;;;;;;;;;;5096919;28;20055;-74
2022/05/19 10:45:53;;;;;;;2.33;1.27;;;;;;;;;;5096852;28;20024;-74
2022/05/19 10:48:37;;;;;;;5.05;1.23;;;;;;;;;;5096485;28;20047;-74
2022/05/19 10:51:10;;;;;;;1.65;0.95;;;;;;;;;;5096756;28;20036;-74
2022/05/19 10:53:54;;;;;;;2.35;1.90;;;;;;;;;;5078133;28;20063;-74
2022/05/19 10:56:38;;;;;;;19.50;2.03;;;;;;;;;;5096233;28;20039;-74
2022/05/19 10:59:13;;;;;;;3.40;1.27;;;;;;;;;;5095224;28;20024;-74
2022/05/19 11:01:57;;;;;;;4.22;2.03;;;;;;;;;;5094945;28;20403;-74
2022/05/19 11:04:28;;;;;;;1.80;1.17;;;;;;;;;;5094611;28;20047;-74
2022/05/19 11:06:53;;;;;;;1.98;1.33;;;;;;;;;;5095609;28;20028;-75
2022/05/19 11:09:34;;;;;;;4.30;1.30;;;;;;;;;;5096249;28;20024;-75
2022/05/19 11:12:06;;;;;;;3.92;1.10;;;;;;;;;;5096195;28;20288;-75
2022/05/19 11:14:55;;;;;;;2.10;1.30;;;;;;;;;;5077860;28;20398;-75
2022/05/19 11:17:37;;;;;;;4.28;1.42;;;;;;;;;;5082365;28;20044;-75
2022/05/19 11:20:16;;;;;;;1.85;1.38;;;;;;;;;;5096039;28;20032;-75
2022/05/19 11:22:41;;;;;;;3.30;1.50;;;;;;;;;;5095211;28;20051;-75
2022/05/19 11:28:06;;;;;;;1.27;1.17;;;;;;;;;;5095958;28;20020;-75
2022/05/19 11:30:33;;;;;;;2.90;1.52;;;;;;;;;;5077716;28;20382;-75
2022/05/19 11:33:01;;;;;;;1.48;1.00;;;;;;;;;;5095769;28;20024;-75
2022/05/19 11:35:39;;;;;;;2.97;1.20;;;;;;;;;;5095720;28;20385;-75
2022/05/19 11:38:23;;;;;;;4.50;1.40;;;;;;;;;;5095636;28;20461;-75
2022/05/19 11:41:00;;;;;;;2.90;1.20;;;;;;;;;;5095692;28;20454;-75
2022/05/19 11:43:45;;;;;;;2.20;1.08;;;;;;;;;;5095633;28;20020;-75
2022/05/19 11:46:16;;;;;;;4.00;1.10;;;;;;;;;;5095549;28;20056;-75
2022/05/19 11:57:30;;;;;;;2.08;1.08;;;;;;;;;;5095333;28;20479;-75
2022/05/19 11:59:57;;;;;;;1.48;1.38;;;;;;;;;;5095200;28;20481;-75
2022/05/19 12:02:26;;;;;;;1.05;0.80;;;;;;;;;;5095184;28;20036;-75
2022/05/19 12:04:58;;;;;;;1.80;1.30;;;;;;;;;;5095213;28;20031;-74
2022/05/19 12:07:35;;;;;;;1.83;1.10;;;;;;;;;;5095148;28;20061;-75
2022/05/19 12:10:00;;;;;;;1.80;1.40;;;;;;;;;;5095039;28;20036;-74
2022/05/19 12:12:29;;;;;;;4.55;1.20;;;;;;;;;;5095096;28;20020;-75
2022/05/19 12:15:15;;;;;;;1.75;0.73;;;;;;;;;;5076861;28;20495;-75
2022/05/19 12:17:42;;;;;;;1.20;1.02;;;;;;;;;;5094694;28;20044;-75
2022/05/19 12:20:28;;;;;;;2.25;1.15;;;;;;;;;;5095025;28;20028;-75
2022/05/19 12:23:15;;;;;;;3.42;1.40;;;;;;;;;;5077179;28;20047;-75
2022/05/19 12:25:43;;;;;;;3.72;1.30;;;;;;;;;;5076637;28;20027;-74
2022/05/19 12:28:14;;;;;;;3.13;1.10;;;;;;;;;;5094702;28;20454;-75
2022/05/19 12:33:36;;;;;;;2.63;1.58;;;;;;;;;;5094803;28;20076;-74
2022/05/19 12:36:07;;;;;;;4.38;1.50;;;;;;;;;;5093619;28;20465;-75
2022/05/19 12:38:44;;;;;;;2.90;1.33;;;;;;;;;;5094627;28;20036;-75
2022/05/19 12:41:33;;;;;;;1.30;1.20;;;;;;;;;;5094494;28;20458;-75
2022/05/19 12:44:18;;;;;;;2.00;1.40;;;;;;;;;;5094528;28;20385;-75
2022/05/19 12:46:45;;;;;;;2.78;1.35;;;;;;;;;;5094224;28;20076;-75
2022/05/19 12:49:18;;;;;;;2.10;0.88;;;;;;;;;;5094428;28;20110;-75
2022/05/19 12:51:57;;;;;;;1.55;1.45;;;;;;;;;;5094345;28;20028;-75
2022/05/19 12:54:25;;;;;;;3.47;1.50;;;;;;;;;;5076292;28;20463;-75
2022/05/19 12:57:11;;;;;;;3.25;1.30;;;;;;;;;;5094210;28;20020;-75
2022/05/19 12:59:44;;;;;;;62.92;3.53;;;;;;;;;;5078317;28;20044;-75
2022/05/19 13:02:17;;;;;;;1.48;1.17;;;;;;;;;;5094130;28;20497;-75
2022/05/19 13:04:45;;;;;;;1.23;1.13;;;;;;;;;;5094029;28;20065;-75
2022/05/19 13:07:25;;;;;;;5.88;1.30;;;;;;;;;;5075823;28;20465;-75
2022/05/19 13:09:51;;;;;;;;;;;;;;;;;;5094589;28;20059;-75
2022/05/19 13:12:18;;;;;;;2.13;1.42;;;;;;;;;;5076636;28;19904;-75
2022/05/19 13:14:47;;;;;;;2.45;1.58;;;;;;;;;;5094523;28;20027;-75
2022/05/19 13:17:18;;;;;;;2.40;1.10;;;;;;;;;;5094210;28;20060;-75
2022/05/19 13:19:43;;;;;;;2.60;1.65;;;;;;;;;;5093631;28;20038;-75
2022/05/19 13:22:18;;;;;;;2.65;1.38;;;;;;;;;;5092822;28;20381;-74
2022/05/19 13:24:45;;;;;;;2.05;1.20;;;;;;;;;;5092746;28;20027;-74
2022/05/19 13:30:22;;;;;;;3.28;1.40;;;;;;;;;;5092665;28;20162;-74
2022/05/19 13:32:48;;;;;;;3.15;1.42;;;;;;;;;;5092608;28;20024;-74
2022/05/19 13:35:16;;;;;;;4.85;1.40;;;;;;;;;;5092905;28;20465;-74
2022/05/19 13:37:42;;;;;;;2.40;1.50;;;;;;;;;;5092487;28;20042;-74
2022/05/19 13:40:28;;;;;;;3.85;1.65;;;;;;;;;;5092791;28;20016;-73
2022/05/19 13:43:01;;;;;;;3.33;1.50;;;;;;;;;;5074437;28;20104;-74
2022/05/19 13:45:46;;;;;;;1.48;1.38;;;;;;;;;;5092498;28;20028;-74
2022/05/19 13:48:16;;;;;;;1.90;1.60;;;;;;;;;;5096690;28;20036;-73
2022/05/19 13:50:43;;;;;;;4.32;1.85;;;;;;;;;;5096688;28;20512;-73
2022/05/19 13:53:09;;;;;;;3.25;1.50;;;;;;;;;;5096621;28;20012;-73
2022/05/19 13:55:36;;;;;;;2.60;1.40;;;;;;;;;;5096720;28;20032;-73
2022/05/19 13:58:02;;;;;;;1.52;1.38;;;;;;;;;;5097472;28;20444;-73
2022/05/19 14:00:30;;;;;;;2.65;1.40;;;;;;;;;;5097415;28;20024;-72
2022/05/19 14:02:57;;;;;;;5.38;1.60;;;;;;;;;;5097428;28;20039;-72
2022/05/19 14:05:25;;;;;;;3.30;1.08;;;;;;;;;;5097304;28;20028;-72
2022/05/19 14:07:51;;;;;;;1.60;1.30;;;;;;;;;;5096466;28;20054;-72
2022/05/19 14:10:21;;;;;;;3.78;1.30;;;;;;;;;;5096187;28;20060;-72
2022/05/19 14:12:56;;;;;;;2.95;1.27;;;;;;;;;;5094388;28;20081;-72
2022/05/19 14:15:41;;;;;;;2.97;1.27;;;;;;;;;;5094540;28;20028;-72
2022/05/19 14:18:13;;;;;;;1.33;1.13;;;;;;;;;;5094143;28;20048;-72
2022/05/19 14:20:43;;;;;;;1.73;1.20;;;;;;;;;;5095201;28;20036;-72
2022/05/19 14:23:19;;;;;;;1.20;1.10;;;;;;;;;;5095498;28;20024;-72
2022/05/19 14:25:46;;;;;;;2.10;1.30;;;;;;;;;;5095401;28;20028;-72
2022/05/19 14:28:15;;;;;;;1.83;1.15;;;;;;;;;;5095971;28;20023;-72
2022/05/19 14:30:41;;;;;;;0.52;0.40;;;;;;;;;;5077820;28;20085;-72
2022/05/19 14:33:07;;;;;;;3.25;1.33;;;;;;;;;;5095745;28;20020;-72
2022/05/19 14:35:49;;;;;;;1.67;1.23;;;;;;;;;;5095798;28;20034;-71
2022/05/19 14:38:39;;;;;;;2.22;1.20;;;;;;;;;;5095794;28;20020;-72
2022/05/19 14:43:52;;;;;;;1.50;1.17;;;;;;;;;;5095711;28;20389;-72
2022/05/19 14:46:19;;;;;;;1.40;1.30;;;;;;;;;;5095639;28;20432;-73
2022/05/19 14:48:49;;;;;;;2.45;1.50;;;;;;;;;;5095615;28;20453;-74
2022/05/19 14:51:18;;;;;;;1.15;1.00;;;;;;;;;;5095625;28;20024;-73
2022/05/19 14:53:46;;;;;;;2.17;1.10;;;;;;;;;;5077385;28;20359;-73
2022/05/19 14:56:14;;;;;;;2.05;1.40;;;;;;;;;;5077286;28;20020;-73
2022/05/19 14:58:46;;;;;;;1.90;1.10;;;;;;;;;;5094106;28;20523;-73
2022/05/19 15:01:11;;;;;;;3.50;1.30;;;;;;;;;;5095411;28;20039;-73
2022/05/19 15:03:37;;;;;;;2.65;1.30;;;;;;;;;;5095355;28;20450;-73
2022/05/19 15:06:02;;;;;;;2.25;1.33;;;;;;;;;;5095225;28;20032;-73
2022/05/19 15:08:29;;;;;;;3.70;1.30;;;;;;;;;;5095178;28;20024;-73
2022/05/19 15:10:54;;;;;;;2.67;1.38;;;;;;;;;;5095057;28;20364;-73
2022/05/19 15:13:20;;;;;;;0.80;0.70;;;;;;;;;;5094746;28;20065;-73
2022/05/19 15:15:45;;;;;;;3.65;1.30;;;;;;;;;;5095054;28;20028;-73
2022/05/19 15:18:11;;;;;;;1.85;1.15;;;;;;;;;;5094859;28;20041;-74
2022/05/19 15:20:36;;;;;;;3.45;1.23;;;;;;;;;;5095022;28;20455;-73
2022/05/19 15:23:03;;;;;;;1.63;1.52;;;;;;;;;;5094879;28;20032;-73